createdAt,value
2023-03-19T00:04:25.424Z,7.76
2023-03-19T00:09:31.734Z,7.58
2023-03-19T00:14:37.902Z,7.26
2023-03-19T00:19:44.078Z,6.57
2023-03-19T00:24:50.135Z,7.00
2023-03-19T00:29:56.270Z,6.73
2023-03-19T00:35:02.317Z,6.32
2023-03-19T00:40:08.564Z,5.87
2023-03-19T00:45:14.758Z,5.74
2023-03-19T00:50:21.028Z,5.78
2023-03-19T00:55:27.098Z,6.00
2023-03-19T01:10:43.153Z,6.15
2023-03-19T01:15:49.223Z,5.98
2023-03-19T01:20:55.345Z,5.47
2023-03-19T01:26:01.426Z,5.22
2023-03-19T01:31:07.682Z,5.28
2023-03-19T01:36:13.682Z,5.15
2023-03-19T01:41:19.918Z,5.29
2023-03-19T01:46:26.045Z,5.48
2023-03-19T01:51:32.218Z,5.13
2023-03-19T01:56:38.321Z,4.99
2023-03-19T02:01:44.603Z,5.93
2023-03-19T02:06:50.861Z,4.97
2023-03-19T02:11:57.101Z,5.57
2023-03-19T02:17:03.208Z,5.25
2023-03-19T02:22:09.413Z,5.62
2023-03-19T02:27:16.291Z,5.57
2023-03-19T02:32:22.571Z,6.49
2023-03-19T02:37:29.337Z,5.94
2023-03-19T02:42:34.399Z,6.12
2023-03-19T02:47:40.484Z,8.83
2023-03-19T02:52:46.701Z,6.32
2023-03-19T02:57:52.767Z,5.95
2023-03-19T03:02:58.993Z,7.44
2023-03-19T03:08:05.253Z,6.22
2023-03-19T03:13:11.506Z,6.74
2023-03-19T03:18:17.588Z,6.51
2023-03-19T03:23:23.846Z,6.86
2023-03-19T03:28:29.918Z,7.34
2023-03-19T03:33:36.195Z,7.53
2023-03-19T03:38:42.270Z,6.94
2023-03-19T03:43:48.578Z,7.86
2023-03-19T03:48:54.658Z,7.62
2023-03-19T03:54:01.062Z,7.96
2023-03-19T03:59:07.482Z,8.73
2023-03-19T04:04:13.778Z,9.32
2023-03-19T04:09:19.866Z,9.36
2023-03-19T04:14:26.078Z,11.06
2023-03-19T04:19:32.562Z,10.05
2023-03-19T04:24:38.798Z,9.21
2023-03-19T04:29:44.950Z,9.94
2023-03-19T04:34:51.183Z,9.31
2023-03-19T04:39:57.477Z,10.50
2023-03-19T04:45:03.724Z,9.43
2023-03-19T04:50:09.918Z,9.87
2023-03-19T04:55:16.111Z,10.46
2023-03-19T05:00:23.036Z,10.82
2023-03-19T05:05:29.470Z,11.48
2023-03-19T05:10:35.925Z,10.03
2023-03-19T05:15:51.380Z,10.63
2023-03-19T05:20:51.224Z,9.95
2023-03-19T05:25:57.380Z,10.65
2023-03-19T05:31:03.681Z,10.72
2023-03-19T05:36:09.782Z,11.71
2023-03-19T05:41:15.873Z,12.15
2023-03-19T05:46:22.469Z,11.70
2023-03-19T05:51:28.547Z,12.47
2023-03-19T05:56:34.744Z,13.02
2023-03-19T06:01:40.961Z,11.64
2023-03-19T06:06:47.161Z,11.44
2023-03-19T06:11:53.237Z,14.25
2023-03-19T06:16:59.439Z,15.24
2023-03-19T06:22:05.559Z,13.95
2023-03-19T06:27:11.735Z,15.50
2023-03-19T06:32:17.883Z,15.65
2023-03-19T06:37:24.187Z,12.69
2023-03-19T06:42:30.316Z,13.66
2023-03-19T06:47:36.418Z,14.70
2023-03-19T06:52:42.501Z,14.68
2023-03-19T06:57:48.708Z,14.62
2023-03-19T07:02:54.817Z,16.36
2023-03-19T07:08:00.990Z,16.45
2023-03-19T07:13:07.134Z,16.53
2023-03-19T07:18:13.453Z,15.84
2023-03-19T07:23:19.557Z,18.66
2023-03-19T07:28:25.710Z,17.57
2023-03-19T07:33:31.926Z,16.62
2023-03-19T07:38:38.260Z,17.66
2023-03-19T07:43:44.448Z,17.86
2023-03-19T07:48:50.608Z,18.62
2023-03-19T07:53:56.723Z,16.33
2023-03-19T07:59:03.074Z,18.45
2023-03-19T08:04:09.359Z,16.48
2023-03-19T08:09:15.515Z,15.91
2023-03-19T08:14:22.170Z,18.72
2023-03-19T08:19:29.466Z,16.70
2023-03-19T08:24:35.828Z,15.44
2023-03-19T08:29:42.262Z,14.82
2023-03-19T08:34:49.751Z,14.32
2023-03-19T08:39:54.121Z,14.86
2023-03-19T08:45:00.237Z,14.14
2023-03-19T08:50:06.762Z,15.07
2023-03-19T08:55:12.881Z,12.71
2023-03-19T09:00:19.294Z,14.25
2023-03-19T09:05:26.290Z,12.44
2023-03-19T09:10:31.325Z,12.16
2023-03-19T09:15:37.549Z,13.36
2023-03-19T09:20:43.626Z,11.66
2023-03-19T09:25:49.769Z,12.93
2023-03-19T09:30:56.361Z,11.53
2023-03-19T09:36:02.448Z,12.19
2023-03-19T09:41:08.618Z,11.81
2023-03-19T09:46:14.712Z,11.74
2023-03-19T09:51:20.882Z,13.41
2023-03-19T09:56:27.085Z,13.05
2023-03-19T10:01:33.437Z,14.51
2023-03-19T10:06:39.488Z,11.33
2023-03-19T10:11:45.727Z,12.44
2023-03-19T10:16:51.935Z,11.69
2023-03-19T10:21:58.187Z,12.06
2023-03-19T10:27:04.295Z,13.24
2023-03-19T10:32:10.489Z,12.64
2023-03-19T10:37:17.436Z,13.99
2023-03-19T10:42:23.710Z,15.84
2023-03-19T10:47:30.094Z,18.04
2023-03-19T10:52:36.228Z,14.59
2023-03-19T10:57:42.323Z,17.06
2023-03-19T11:02:48.657Z,16.22
2023-03-19T11:07:54.853Z,17.89
2023-03-19T11:13:01.332Z,16.69
2023-03-19T11:18:07.457Z,18.25
2023-03-19T11:23:13.790Z,17.57
2023-03-19T11:28:21.835Z,16.89
2023-03-19T11:33:25.637Z,16.70
2023-03-19T11:38:31.671Z,15.68
2023-03-19T11:43:37.843Z,13.69
2023-03-19T11:48:43.919Z,13.47
2023-03-19T11:53:50.252Z,12.33
2023-03-19T11:58:56.374Z,14.06
2023-03-19T12:04:02.595Z,12.64
2023-03-19T12:09:08.777Z,12.08
2023-03-19T12:14:14.987Z,12.22
2023-03-19T12:19:21.167Z,12.95
2023-03-19T12:24:27.458Z,13.39
2023-03-19T12:29:33.532Z,14.21
2023-03-19T12:34:39.695Z,12.47
2023-03-19T12:39:45.878Z,11.57
2023-03-19T12:44:52.059Z,13.43
2023-03-19T12:49:58.216Z,11.73
2023-03-19T12:55:04.423Z,9.75
2023-03-19T13:00:10.504Z,8.96
2023-03-19T13:05:16.805Z,9.83
2023-03-19T13:10:23.011Z,9.56
2023-03-19T13:15:29.323Z,10.12
2023-03-19T13:20:35.645Z,9.43
2023-03-19T13:25:41.724Z,8.74
2023-03-19T13:30:47.827Z,9.35
2023-03-19T13:35:54.036Z,7.40
2023-03-19T13:41:00.161Z,7.24
2023-03-19T13:46:06.736Z,7.26
2023-03-19T13:51:12.860Z,7.84
2023-03-19T13:56:29.620Z,6.92
2023-03-19T14:01:24.728Z,6.94
2023-03-19T14:06:31.054Z,7.12
2023-03-19T14:11:37.026Z,7.33
2023-03-19T14:16:43.399Z,6.40
2023-03-19T14:21:49.926Z,6.56
2023-03-19T14:26:55.876Z,5.99
2023-03-19T14:32:02.126Z,6.33
2023-03-19T14:37:08.329Z,5.16
2023-03-19T14:42:14.478Z,5.27
2023-03-19T14:47:20.725Z,6.57
2023-03-19T14:52:26.860Z,6.04
2023-03-19T14:57:33.060Z,5.72
2023-03-19T15:02:39.210Z,4.94
2023-03-19T15:07:45.496Z,5.49
2023-03-19T15:12:51.687Z,5.72
2023-03-19T15:18:03.432Z,5.58
2023-03-19T15:23:03.709Z,5.67
2023-03-19T15:28:09.852Z,4.48
2023-03-19T15:33:32.922Z,5.05
2023-03-19T15:38:21.607Z,5.40
2023-03-19T15:43:27.683Z,4.23
2023-03-19T15:48:34.001Z,5.38
2023-03-19T15:53:40.134Z,5.80
2023-03-19T15:58:47.564Z,5.38
2023-03-19T16:03:53.732Z,5.82
2023-03-19T16:08:59.926Z,6.05
2023-03-19T16:14:06.206Z,5.14
2023-03-19T16:19:12.477Z,4.97
2023-03-19T16:24:18.572Z,4.70
2023-03-19T16:29:24.789Z,5.05
2023-03-19T16:34:32.125Z,4.13
2023-03-19T16:39:36.896Z,5.03
2023-03-19T16:44:43.009Z,4.99
2023-03-19T16:49:49.194Z,6.23
2023-03-19T16:54:55.606Z,6.58
2023-03-19T17:00:01.906Z,7.01
2023-03-19T17:05:08.125Z,5.94
2023-03-19T17:10:14.402Z,6.13
2023-03-19T17:15:20.497Z,5.91
2023-03-19T17:20:26.659Z,5.60
2023-03-19T17:25:32.986Z,6.71
2023-03-19T17:30:38.544Z,6.48
2023-03-19T17:35:44.707Z,5.49
2023-03-19T17:40:50.843Z,6.40
2023-03-19T17:45:57.154Z,6.15
2023-03-19T17:51:03.356Z,7.36
2023-03-19T17:56:09.496Z,8.41
2023-03-19T18:01:16.042Z,11.15
2023-03-19T18:06:22.176Z,11.23
2023-03-19T18:11:28.363Z,13.55
2023-03-19T18:16:34.659Z,10.83
2023-03-19T18:21:40.747Z,10.39
2023-03-19T18:26:47.797Z,11.95
2023-03-19T18:31:54.915Z,13.67
2023-03-19T18:37:01.778Z,15.50
2023-03-19T18:42:08.345Z,15.96
2023-03-19T18:47:13.552Z,18.26
2023-03-19T18:52:20.745Z,19.89
2023-03-19T18:57:29.586Z,17.61
2023-03-19T19:02:36.010Z,18.95
2023-03-19T19:07:42.186Z,22.99
2023-03-19T19:12:52.418Z,22.37
2023-03-19T19:17:56.315Z,24.11
2023-03-19T19:23:02.536Z,23.05
2023-03-19T19:28:08.669Z,21.83
2023-03-19T19:33:14.966Z,20.40
2023-03-19T19:38:21.026Z,22.76
2023-03-19T19:43:27.149Z,21.89
2023-03-19T19:48:33.385Z,22.29
2023-03-19T19:53:39.575Z,24.67
2023-03-19T19:58:45.614Z,23.05
2023-03-19T20:03:53.081Z,25.22
2023-03-19T20:08:59.145Z,27.03
2023-03-19T20:14:05.401Z,28.02
2023-03-19T20:19:11.558Z,28.39
2023-03-19T20:24:17.777Z,27.32
2023-03-19T20:29:23.861Z,27.10
2023-03-19T20:34:39.017Z,27.47
2023-03-19T20:39:35.788Z,27.97
2023-03-19T20:44:42.046Z,30.58
2023-03-19T20:49:48.160Z,31.35
2023-03-19T20:54:54.440Z,34.73
2023-03-19T21:00:00.671Z,34.21
2023-03-19T21:05:07.069Z,34.67
2023-03-19T21:10:13.214Z,35.19
2023-03-19T21:15:19.504Z,37.40
2023-03-19T21:20:25.755Z,51.33
2023-03-19T21:25:32.051Z,35.35
2023-03-19T21:30:41.359Z,30.93
2023-03-19T21:35:47.610Z,33.14
2023-03-19T21:40:53.684Z,29.43
2023-03-19T21:46:04.156Z,30.35
2023-03-19T21:51:05.584Z,31.37
2023-03-19T21:56:11.746Z,31.45
2023-03-19T22:01:18.274Z,31.37
2023-03-19T22:06:24.405Z,31.91
2023-03-19T22:11:30.659Z,33.66
2023-03-19T22:16:36.893Z,32.32
2023-03-19T22:21:44.040Z,34.24
2023-03-19T22:26:50.384Z,34.13
2023-03-19T22:31:56.608Z,38.80
2023-03-19T22:37:02.418Z,36.90
2023-03-19T22:42:08.557Z,34.01
2023-03-19T22:47:16.825Z,32.76
2023-03-19T22:52:22.961Z,30.06
2023-03-19T22:57:29.177Z,30.66
2023-03-19T23:02:35.354Z,28.35
2023-03-19T23:07:41.525Z,29.40
2023-03-19T23:12:47.741Z,27.78
2023-03-19T23:17:54.236Z,26.38
2023-03-19T23:23:06.091Z,26.80
2023-03-19T23:28:02.977Z,24.88
2023-03-19T23:33:09.155Z,24.29
2023-03-19T23:38:15.315Z,25.00
2023-03-19T23:43:21.936Z,24.00
2023-03-19T23:48:28.335Z,22.17
2023-03-19T23:53:34.543Z,21.23
2023-03-19T23:58:40.821Z,20.62
